createdAt,value
2023-02-14T00:00:32.703Z,5.90
2023-02-14T00:03:00.327Z,6.63
2023-02-14T00:05:27.662Z,6.50
2023-02-14T00:07:55.071Z,6.00
2023-02-14T00:10:22.372Z,6.40
2023-02-14T00:12:49.668Z,6.10
2023-02-14T00:15:22.919Z,5.37
2023-02-14T00:17:51.357Z,5.00
2023-02-14T00:20:18.831Z,6.63
2023-02-14T00:22:46.103Z,5.80
2023-02-14T00:25:13.509Z,6.47
2023-02-14T00:27:41.021Z,5.23
2023-02-14T00:30:09.018Z,5.40
2023-02-14T00:32:39.555Z,6.03
2023-02-14T00:35:07.582Z,5.77
2023-02-14T00:37:35.008Z,6.13
2023-02-14T00:40:02.499Z,6.07
2023-02-14T00:42:29.864Z,6.23
2023-02-14T00:44:57.212Z,5.87
2023-02-14T00:47:24.683Z,5.47
2023-02-14T00:49:52.496Z,5.53
2023-02-14T00:52:19.878Z,5.40
2023-02-14T00:54:47.207Z,5.33
2023-02-14T00:57:14.756Z,5.30
2023-02-14T00:59:42.019Z,6.27
2023-02-14T01:02:09.381Z,6.83
2023-02-14T01:04:36.818Z,6.50
2023-02-14T01:07:04.140Z,5.13
2023-02-14T01:09:31.526Z,5.67
2023-02-14T01:12:02.614Z,6.20
2023-02-14T01:14:29.920Z,5.73
2023-02-14T01:16:57.266Z,5.40
2023-02-14T01:19:25.332Z,6.50
2023-02-14T01:21:52.629Z,5.90
2023-02-14T01:24:25.075Z,5.07
2023-02-14T01:26:52.452Z,5.67
2023-02-14T01:29:19.748Z,6.33
2023-02-14T01:31:49.330Z,5.97
2023-02-14T01:34:17.961Z,5.57
2023-02-14T01:36:47.696Z,5.80
2023-02-14T01:39:16.040Z,6.80
2023-02-14T01:41:50.054Z,5.20
2023-02-14T01:44:17.641Z,5.93
2023-02-14T01:46:45.873Z,5.40
2023-02-14T01:49:21.034Z,5.63
2023-02-14T01:52:03.043Z,5.70
2023-02-14T01:54:32.726Z,6.00
2023-02-14T01:57:03.130Z,4.37
2023-02-14T01:59:32.613Z,5.03
2023-02-14T02:02:00.338Z,4.93
2023-02-14T02:04:31.205Z,5.63
2023-02-14T02:07:01.727Z,5.77
2023-02-14T02:09:37.445Z,5.10
2023-02-14T02:12:04.890Z,5.47
2023-02-14T02:14:32.686Z,5.77
2023-02-14T02:17:03.282Z,5.33
2023-02-14T02:19:46.006Z,4.73
2023-02-14T02:22:13.299Z,4.80
2023-02-14T02:24:49.986Z,5.43
2023-02-14T02:27:21.223Z,5.33
2023-02-14T02:29:54.689Z,5.20
2023-02-14T02:32:40.827Z,5.17
2023-02-14T02:35:14.240Z,5.13
2023-02-14T02:37:41.579Z,5.30
2023-02-14T02:40:11.987Z,6.37
2023-02-14T02:42:50.051Z,4.37
2023-02-14T02:45:17.382Z,5.13
2023-02-14T02:47:56.619Z,5.90
2023-02-14T02:50:53.349Z,5.27
2023-02-14T02:53:20.632Z,5.57
2023-02-14T02:56:11.830Z,4.33
2023-02-14T02:58:42.285Z,5.00
2023-02-14T03:01:12.341Z,5.47
2023-02-14T03:03:59.932Z,4.33
2023-02-14T03:06:27.306Z,5.57
2023-02-14T03:08:54.619Z,5.43
2023-02-14T03:11:22.032Z,4.90
2023-02-14T03:13:52.475Z,6.17
2023-02-14T03:16:25.353Z,5.87
2023-02-14T03:19:14.351Z,5.07
2023-02-14T03:22:00.645Z,4.07
2023-02-14T03:24:27.953Z,4.97
2023-02-14T03:27:02.008Z,5.57
2023-02-14T03:29:29.463Z,5.37
2023-02-14T03:32:01.180Z,4.30
2023-02-14T03:35:20.716Z,5.87
2023-02-14T03:37:48.528Z,5.43
2023-02-14T03:40:16.672Z,4.97
2023-02-14T03:42:50.810Z,5.03
2023-02-14T03:45:21.638Z,4.27
2023-02-14T03:47:49.239Z,5.87
2023-02-14T03:50:18.206Z,5.17
2023-02-14T03:52:46.785Z,4.53
2023-02-14T03:55:16.520Z,4.70
2023-02-14T03:57:51.221Z,4.63
2023-02-14T04:00:19.086Z,4.53
2023-02-14T04:02:47.964Z,5.63
2023-02-14T04:05:17.954Z,5.00
2023-02-14T04:07:50.098Z,4.37
2023-02-14T04:10:17.492Z,4.07
2023-02-14T04:12:45.053Z,4.03
2023-02-14T04:15:13.332Z,4.77
2023-02-14T04:17:59.411Z,4.67
2023-02-14T04:20:27.070Z,4.63
2023-02-14T04:22:54.661Z,5.00
2023-02-14T04:25:22.378Z,4.83
2023-02-14T04:27:49.819Z,4.73
2023-02-14T04:30:18.091Z,5.00
2023-02-14T04:32:45.615Z,4.80
2023-02-14T04:35:12.900Z,4.50
2023-02-14T04:37:40.359Z,4.97
2023-02-14T04:40:08.083Z,4.53
2023-02-14T04:42:35.724Z,4.90
2023-02-14T04:45:04.442Z,4.90
2023-02-14T04:47:31.878Z,4.53
2023-02-14T04:49:59.236Z,4.87
2023-02-14T04:52:26.682Z,5.37
2023-02-14T04:54:54.150Z,4.60
2023-02-14T04:57:21.577Z,4.77
2023-02-14T04:59:48.887Z,5.00
2023-02-14T05:02:16.318Z,5.07
2023-02-14T05:04:43.664Z,5.13
2023-02-14T05:07:10.982Z,4.47
2023-02-14T05:09:38.393Z,5.70
2023-02-14T05:12:05.731Z,4.30
2023-02-14T05:14:33.146Z,4.73
2023-02-14T05:17:00.617Z,4.63
2023-02-14T05:19:27.920Z,4.33
2023-02-14T05:21:55.335Z,4.83
2023-02-14T05:24:22.618Z,5.30
2023-02-14T05:26:49.965Z,4.63
2023-02-14T05:29:17.366Z,4.47
2023-02-14T05:31:44.771Z,5.27
2023-02-14T05:34:12.397Z,4.63
2023-02-14T05:36:39.701Z,5.43
2023-02-14T05:39:07.011Z,5.13
2023-02-14T05:41:34.311Z,4.70
2023-02-14T05:44:01.937Z,4.67
2023-02-14T05:46:29.355Z,4.97
2023-02-14T05:48:56.621Z,5.40
2023-02-14T05:51:23.994Z,5.17
2023-02-14T05:53:51.473Z,5.47
2023-02-14T05:56:18.788Z,4.50
2023-02-14T05:58:46.128Z,4.40
2023-02-14T06:01:13.561Z,4.03
2023-02-14T06:03:40.946Z,4.70
2023-02-14T06:06:08.277Z,4.83
2023-02-14T06:08:35.698Z,4.90
2023-02-14T06:11:03.011Z,5.47
2023-02-14T06:13:30.770Z,4.87
2023-02-14T06:15:58.070Z,5.50
2023-02-14T06:18:28.114Z,5.30
2023-02-14T06:20:55.740Z,4.63
2023-02-14T06:23:22.999Z,4.00
2023-02-14T06:25:50.253Z,5.20
2023-02-14T06:28:17.579Z,5.10
2023-02-14T06:30:46.757Z,5.60
2023-02-14T06:33:14.104Z,4.87
2023-02-14T06:35:41.444Z,4.73
2023-02-14T06:38:08.688Z,4.20
2023-02-14T06:40:35.964Z,5.47
2023-02-14T06:43:03.298Z,5.60
2023-02-14T06:45:30.664Z,4.83
2023-02-14T06:47:58.070Z,5.40
2023-02-14T06:50:25.442Z,5.87
2023-02-14T06:52:52.742Z,4.80
2023-02-14T06:55:20.480Z,5.00
2023-02-14T06:57:47.993Z,5.47
2023-02-14T07:00:15.539Z,5.20
2023-02-14T07:02:43.132Z,5.20
2023-02-14T07:05:10.787Z,5.47
2023-02-14T07:07:38.331Z,5.13
2023-02-14T07:10:06.192Z,4.87
2023-02-14T07:12:34.774Z,4.47
2023-02-14T07:15:02.189Z,6.70
2023-02-14T07:17:29.499Z,5.23
2023-02-14T07:19:56.810Z,4.90
2023-02-14T07:22:29.493Z,4.70
2023-02-14T07:25:00.347Z,5.90
2023-02-14T07:27:27.638Z,4.77
2023-02-14T07:29:55.147Z,4.87
2023-02-14T07:32:23.642Z,5.60
2023-02-14T07:34:51.487Z,5.23
2023-02-14T07:37:19.107Z,5.37
2023-02-14T07:39:46.480Z,4.27
2023-02-14T07:42:13.939Z,5.30
2023-02-14T07:44:42.063Z,4.73
2023-02-14T07:47:10.173Z,5.03
2023-02-14T07:49:37.514Z,5.23
2023-02-14T07:52:05.663Z,4.33
2023-02-14T07:54:33.150Z,5.20
2023-02-14T07:57:00.519Z,5.60
2023-02-14T07:59:28.042Z,5.10
2023-02-14T08:01:55.470Z,5.37
2023-02-14T08:04:26.101Z,4.47
2023-02-14T08:06:53.889Z,5.30
2023-02-14T08:09:28.406Z,5.25
2023-02-14T08:12:16.241Z,4.70
2023-02-14T08:14:44.186Z,5.47
2023-02-14T08:17:13.441Z,5.57
2023-02-14T08:19:42.627Z,4.40
2023-02-14T08:22:10.189Z,5.10
2023-02-14T08:24:38.366Z,5.03
2023-02-14T08:27:18.198Z,5.90
2023-02-14T08:29:47.988Z,5.87
2023-02-14T08:32:18.199Z,5.27
2023-02-14T08:34:47.649Z,4.70
2023-02-14T08:37:17.028Z,5.07
2023-02-14T08:39:44.298Z,5.43
2023-02-14T08:42:14.942Z,4.90
2023-02-14T08:44:42.257Z,4.70
2023-02-14T08:47:09.601Z,4.47
2023-02-14T08:49:36.914Z,6.17
2023-02-14T08:52:06.812Z,5.07
2023-02-14T08:54:34.575Z,6.10
2023-02-14T08:57:03.535Z,5.60
2023-02-14T08:59:32.113Z,4.57
2023-02-14T09:01:59.506Z,4.73
2023-02-14T09:04:27.021Z,5.20
2023-02-14T09:06:54.637Z,6.20
2023-02-14T09:09:23.202Z,6.17
2023-02-14T09:11:50.625Z,5.87
2023-02-14T09:14:20.584Z,6.53
2023-02-14T09:16:49.329Z,7.07
2023-02-14T09:19:16.962Z,5.83
2023-02-14T09:21:44.546Z,6.67
2023-02-14T09:24:13.561Z,6.57
2023-02-14T09:26:42.439Z,6.37
2023-02-14T09:29:13.784Z,7.30
2023-02-14T09:31:41.305Z,5.27
2023-02-14T09:34:27.224Z,8.10
2023-02-14T09:37:13.243Z,6.23
2023-02-14T09:39:40.588Z,6.37
2023-02-14T09:42:11.130Z,6.60
2023-02-14T09:44:48.435Z,7.07
2023-02-14T09:47:15.667Z,7.30
2023-02-14T09:49:43.527Z,7.80
2023-02-14T09:52:15.606Z,9.17
2023-02-14T09:54:44.359Z,8.90
2023-02-14T09:57:26.905Z,8.33
2023-02-14T09:59:58.480Z,8.20
2023-02-14T10:02:28.988Z,8.90
2023-02-14T10:05:02.501Z,9.03
2023-02-14T10:07:38.276Z,9.13
2023-02-14T10:10:14.554Z,7.60
2023-02-14T10:12:52.559Z,6.17
2023-02-14T10:15:22.527Z,7.27
2023-02-14T10:17:53.866Z,8.90
2023-02-14T10:20:27.617Z,7.13
2023-02-14T10:23:03.173Z,7.93
2023-02-14T10:25:34.557Z,6.97
2023-02-14T10:28:03.011Z,9.33
2023-02-14T10:30:38.542Z,7.47
2023-02-14T10:33:22.679Z,8.97
2023-02-14T10:35:52.435Z,9.57
2023-02-14T10:38:22.932Z,7.17
2023-02-14T10:41:19.679Z,9.50
2023-02-14T10:44:00.634Z,7.73
2023-02-14T10:46:43.922Z,8.80
2023-02-14T10:49:26.568Z,9.67
2023-02-14T10:52:16.324Z,10.77
2023-02-14T10:54:44.974Z,8.47
2023-02-14T10:57:17.469Z,9.43
2023-02-14T10:59:53.368Z,10.27
2023-02-14T11:02:23.824Z,8.43
2023-02-14T11:04:53.386Z,10.70
2023-02-14T11:07:24.530Z,9.90
2023-02-14T11:09:52.053Z,9.80
2023-02-14T11:12:33.226Z,9.10
2023-02-14T11:15:15.851Z,11.30
2023-02-14T11:17:43.750Z,10.77
2023-02-14T11:20:20.372Z,8.87
2023-02-14T11:22:47.782Z,10.30
2023-02-14T11:25:23.786Z,10.80
2023-02-14T11:28:02.805Z,11.83
2023-02-14T11:30:32.468Z,10.60
2023-02-14T11:32:59.913Z,10.80
2023-02-14T11:35:34.345Z,10.90
2023-02-14T11:38:03.396Z,11.83
2023-02-14T11:40:32.444Z,11.90
2023-02-14T11:43:13.428Z,12.47
2023-02-14T11:45:42.968Z,10.60
2023-02-14T11:48:37.159Z,11.70
2023-02-14T11:51:13.787Z,12.33
2023-02-14T11:53:44.645Z,12.07
2023-02-14T11:56:12.736Z,11.13
2023-02-14T11:58:42.375Z,11.63
2023-02-14T12:01:13.340Z,11.87
2023-02-14T12:03:46.414Z,12.43
2023-02-14T12:06:14.216Z,12.70
2023-02-14T12:08:43.937Z,10.03
2023-02-14T12:11:24.972Z,11.80
2023-02-14T12:13:56.586Z,11.60
2023-02-14T12:16:29.554Z,11.93
2023-02-14T12:18:56.849Z,11.47
2023-02-14T12:21:36.740Z,12.60
2023-02-14T12:24:19.556Z,12.20
2023-02-14T12:27:02.695Z,11.87
2023-02-14T12:29:41.413Z,12.73
2023-02-14T12:32:17.860Z,11.07
2023-02-14T12:34:47.429Z,12.70
2023-02-14T12:37:20.388Z,12.47
2023-02-14T12:39:50.737Z,12.47
2023-02-14T12:42:27.368Z,12.93
2023-02-14T12:45:15.272Z,13.47
2023-02-14T12:48:01.605Z,12.83
2023-02-14T12:50:31.978Z,11.90
2023-02-14T12:53:02.438Z,11.93
2023-02-14T12:55:48.334Z,11.80
2023-02-14T12:58:35.406Z,12.93
2023-02-14T13:01:28.447Z,12.83
2023-02-14T13:04:20.715Z,12.90
2023-02-14T13:07:11.224Z,11.87
2023-02-14T13:09:59.295Z,13.80
2023-02-14T13:12:40.056Z,13.13
2023-02-14T13:15:13.756Z,12.37
2023-02-14T13:18:04.493Z,13.30
2023-02-14T13:20:51.323Z,12.10
2023-02-14T13:23:21.929Z,13.03
2023-02-14T13:25:58.151Z,13.43
2023-02-14T13:28:27.264Z,11.80
2023-02-14T13:30:56.377Z,14.43
2023-02-14T13:33:26.387Z,14.37
2023-02-14T13:36:02.577Z,13.47
2023-02-14T13:38:31.961Z,12.53
2023-02-14T13:41:00.678Z,12.80
2023-02-14T13:44:00.922Z,12.73
2023-02-14T13:46:34.364Z,13.33
2023-02-14T13:49:07.005Z,11.97
2023-02-14T13:51:44.624Z,13.33
2023-02-14T13:54:21.528Z,12.37
2023-02-14T13:56:49.226Z,12.90
2023-02-14T13:59:29.176Z,13.53
2023-02-14T14:02:17.714Z,12.63
2023-02-14T14:04:45.228Z,14.70
2023-02-14T14:07:17.452Z,12.87
2023-02-14T14:09:45.535Z,14.07
2023-02-14T14:12:28.403Z,13.93
2023-02-14T14:15:05.417Z,12.30
2023-02-14T14:17:35.181Z,13.63
2023-02-14T14:20:04.445Z,13.17
2023-02-14T14:22:31.963Z,13.43
2023-02-14T14:25:10.602Z,12.63
2023-02-14T14:27:42.524Z,14.20
2023-02-14T14:30:18.957Z,12.53
2023-02-14T14:32:46.631Z,14.60
2023-02-14T14:35:15.792Z,11.20
2023-02-14T14:37:54.526Z,13.40
2023-02-14T14:40:32.488Z,12.23
2023-02-14T14:43:07.534Z,12.83
2023-02-14T14:45:37.886Z,12.00
2023-02-14T14:48:10.918Z,11.30
2023-02-14T14:50:39.933Z,13.13
2023-02-14T14:53:11.767Z,11.97
2023-02-14T14:55:40.101Z,12.17
2023-02-14T14:58:11.678Z,12.03
2023-02-14T15:00:42.536Z,13.37
2023-02-14T15:03:15.653Z,12.57
2023-02-14T15:05:44.261Z,14.07
2023-02-14T15:08:27.842Z,16.27
2023-02-14T15:11:38.416Z,14.63
2023-02-14T15:14:14.821Z,11.80
2023-02-14T15:16:45.535Z,14.87
2023-02-14T15:19:18.372Z,14.73
2023-02-14T15:21:47.144Z,14.00
2023-02-14T15:24:16.718Z,15.20
2023-02-14T15:26:48.498Z,14.43
2023-02-14T15:29:23.964Z,14.27
2023-02-14T15:31:52.403Z,14.40
2023-02-14T15:34:32.454Z,16.07
2023-02-14T15:37:03.960Z,15.33
2023-02-14T15:39:41.655Z,14.53
2023-02-14T15:42:23.847Z,14.37
2023-02-14T15:44:51.424Z,13.47
2023-02-14T15:47:22.624Z,12.53
2023-02-14T15:49:52.451Z,15.07
2023-02-14T15:52:22.512Z,13.93
2023-02-14T15:54:50.843Z,13.53
2023-02-14T15:57:35.805Z,14.93
2023-02-14T16:00:09.919Z,14.13
2023-02-14T16:02:42.288Z,14.20
2023-02-14T16:05:20.840Z,15.57
2023-02-14T16:07:57.835Z,15.07
2023-02-14T16:10:26.883Z,14.37
2023-02-14T16:12:59.347Z,14.33
2023-02-14T16:15:28.522Z,15.03
2023-02-14T16:17:56.123Z,14.67
2023-02-14T16:20:23.645Z,15.20
2023-02-14T16:22:51.443Z,14.70
2023-02-14T16:25:18.969Z,14.20
2023-02-14T16:27:46.361Z,14.03
2023-02-14T16:30:18.723Z,11.47
2023-02-14T16:32:53.760Z,11.90
2023-02-14T16:35:22.356Z,13.97
2023-02-14T16:37:51.029Z,11.47
2023-02-14T16:40:19.902Z,14.03
2023-02-14T16:42:47.407Z,13.77
2023-02-14T16:45:18.965Z,11.87
2023-02-14T16:47:47.716Z,16.20
2023-02-14T16:50:15.457Z,12.30
2023-02-14T16:52:44.019Z,13.20
2023-02-14T16:55:20.691Z,15.50
2023-02-14T16:57:50.002Z,13.20
2023-02-14T17:00:17.674Z,11.37
2023-02-14T17:02:45.742Z,11.50
2023-02-14T17:05:13.682Z,11.77
2023-02-14T17:07:45.220Z,11.53
2023-02-14T17:10:22.312Z,9.80
2023-02-14T17:12:57.559Z,11.27
2023-02-14T17:15:32.248Z,11.63
2023-02-14T17:18:10.086Z,10.53
2023-02-14T17:20:40.960Z,10.10
2023-02-14T17:23:09.154Z,10.03
2023-02-14T17:25:36.751Z,10.87
2023-02-14T17:28:11.832Z,11.13
2023-02-14T17:30:42.723Z,11.23
2023-02-14T17:33:10.198Z,10.47
2023-02-14T17:35:38.214Z,11.57
2023-02-14T17:38:05.878Z,10.73
2023-02-14T17:40:33.379Z,10.10
2023-02-14T17:43:01.406Z,12.10
2023-02-14T17:45:28.806Z,10.17
2023-02-14T17:47:56.568Z,12.23
2023-02-14T17:50:24.009Z,9.93
2023-02-14T17:52:55.447Z,10.87
2023-02-14T17:55:23.511Z,10.23
2023-02-14T17:57:52.593Z,10.60
2023-02-14T18:00:24.205Z,10.43
2023-02-14T18:02:51.897Z,10.97
2023-02-14T18:05:19.374Z,11.80
2023-02-14T18:07:47.620Z,11.23
2023-02-14T18:10:15.445Z,11.53
2023-02-14T18:12:43.664Z,11.10
2023-02-14T18:15:11.103Z,10.37
2023-02-14T18:17:39.982Z,12.37
2023-02-14T18:20:07.793Z,11.17
2023-02-14T18:22:35.232Z,11.53
2023-02-14T18:25:02.610Z,10.83
2023-02-14T18:27:30.143Z,11.60
2023-02-14T18:30:17.786Z,10.87
2023-02-14T18:32:45.217Z,10.10
2023-02-14T18:35:13.081Z,13.53
2023-02-14T18:37:42.029Z,11.20
2023-02-14T18:40:11.283Z,11.70
2023-02-14T18:42:38.758Z,11.10
2023-02-14T18:45:06.427Z,11.97
2023-02-14T18:47:33.850Z,11.27
2023-02-14T18:50:34.277Z,11.07
2023-02-14T18:53:01.809Z,12.57
2023-02-14T18:55:39.435Z,11.33
2023-02-14T18:58:07.834Z,10.93
2023-02-14T19:00:35.450Z,11.20
2023-02-14T19:03:03.541Z,11.70
2023-02-14T19:05:32.150Z,11.13
2023-02-14T19:08:00.543Z,11.17
2023-02-14T19:10:27.975Z,12.30
2023-02-14T19:12:55.590Z,11.90
2023-02-14T19:15:23.039Z,12.17
2023-02-14T19:17:56.573Z,12.17
2023-02-14T19:20:23.995Z,12.37
2023-02-14T19:22:51.853Z,10.40
2023-02-14T19:25:19.330Z,11.63
2023-02-14T19:27:46.830Z,11.07
2023-02-14T19:30:14.971Z,11.33
2023-02-14T19:32:42.441Z,12.27
2023-02-14T19:35:11.921Z,12.10
2023-02-14T19:37:39.565Z,11.53
2023-02-14T19:40:07.333Z,11.40
2023-02-14T19:42:35.567Z,12.10
2023-02-14T19:45:03.221Z,10.77
2023-02-14T19:47:46.345Z,11.67
2023-02-14T19:50:15.664Z,11.13
2023-02-14T19:52:44.200Z,12.00
2023-02-14T19:55:20.561Z,12.07
2023-02-14T19:57:50.499Z,11.47
2023-02-14T20:00:18.420Z,12.17
2023-02-14T20:02:50.429Z,11.07
2023-02-14T20:05:18.507Z,12.83
2023-02-14T20:07:49.597Z,12.73
2023-02-14T20:10:20.411Z,12.70
2023-02-14T20:12:47.965Z,11.47
2023-02-14T20:15:15.395Z,11.03
2023-02-14T20:17:42.807Z,11.60
2023-02-14T20:20:13.713Z,11.67
2023-02-14T20:22:42.027Z,11.00
2023-02-14T20:25:10.030Z,11.90
2023-02-14T20:27:38.362Z,12.73
2023-02-14T20:30:06.761Z,13.07
2023-02-14T20:32:35.242Z,12.63
2023-02-14T20:35:02.891Z,12.63
2023-02-14T20:37:30.380Z,12.13
2023-02-14T20:39:57.985Z,13.43
2023-02-14T20:42:25.463Z,11.90
2023-02-14T20:44:53.308Z,12.47
2023-02-14T20:47:21.466Z,11.20
2023-02-14T20:49:49.052Z,12.57
2023-02-14T20:52:18.013Z,12.70
2023-02-14T20:54:45.419Z,13.40
2023-02-14T20:57:12.752Z,12.07
2023-02-14T20:59:46.284Z,13.33
2023-02-14T21:02:13.779Z,11.83
2023-02-14T21:04:41.161Z,11.77
2023-02-14T21:07:10.404Z,13.43
2023-02-14T21:09:38.432Z,11.83
2023-02-14T21:12:06.975Z,12.93
2023-02-14T21:14:34.460Z,12.20
2023-02-14T21:17:04.406Z,12.27
2023-02-14T21:19:32.361Z,12.40
2023-02-14T21:21:59.835Z,12.77
2023-02-14T21:24:27.372Z,13.80
2023-02-14T21:26:54.835Z,12.50
2023-02-14T21:29:22.215Z,11.20
2023-02-14T21:31:50.876Z,11.93
2023-02-14T21:34:30.249Z,12.70
2023-02-14T21:37:02.505Z,11.93
2023-02-14T21:39:31.105Z,13.67
2023-02-14T21:41:59.710Z,13.37
2023-02-14T21:44:45.979Z,11.30
2023-02-14T21:47:13.485Z,12.77
2023-02-14T21:49:59.588Z,12.33
2023-02-14T21:52:26.978Z,11.20
2023-02-14T21:54:54.381Z,11.57
2023-02-14T21:57:21.838Z,14.03
2023-02-14T21:59:49.287Z,13.00
2023-02-14T22:02:16.675Z,13.17
2023-02-14T22:04:45.595Z,13.97
2023-02-14T22:07:13.020Z,13.40
2023-02-14T22:09:40.504Z,13.17
2023-02-14T22:12:08.183Z,12.43
2023-02-14T22:14:35.636Z,13.00
2023-02-14T22:17:03.025Z,12.43
2023-02-14T22:19:30.448Z,12.07
2023-02-14T22:21:57.953Z,13.47
2023-02-14T22:24:25.472Z,13.67
2023-02-14T22:26:52.843Z,13.50
2023-02-14T22:29:20.476Z,13.23
2023-02-14T22:31:48.023Z,14.40
2023-02-14T22:34:19.771Z,11.90
2023-02-14T22:36:48.634Z,13.07
2023-02-14T22:39:18.296Z,13.83
2023-02-14T22:41:47.598Z,12.70
2023-02-14T22:44:15.476Z,13.27
2023-02-14T22:46:43.046Z,13.90
2023-02-14T22:49:10.635Z,14.17
2023-02-14T22:51:39.331Z,13.90
2023-02-14T22:54:08.284Z,14.03
2023-02-14T22:56:40.418Z,14.27
2023-02-14T22:59:28.706Z,13.33
2023-02-14T23:01:56.404Z,13.80
2023-02-14T23:04:29.554Z,14.47
2023-02-14T23:06:57.211Z,15.33
2023-02-14T23:09:25.486Z,14.47
2023-02-14T23:11:53.055Z,13.80
2023-02-14T23:14:39.272Z,14.57
2023-02-14T23:17:26.752Z,13.47
2023-02-14T23:20:12.877Z,14.50
2023-02-14T23:22:41.280Z,12.90
2023-02-14T23:25:10.882Z,13.97
2023-02-14T23:27:43.472Z,14.40
2023-02-14T23:30:14.727Z,14.57
2023-02-14T23:32:42.283Z,13.20
2023-02-14T23:35:10.189Z,12.33
2023-02-14T23:37:37.815Z,14.47
2023-02-14T23:40:05.621Z,13.20
2023-02-14T23:42:33.060Z,12.63
2023-02-14T23:45:20.547Z,13.67
2023-02-14T23:47:48.193Z,12.60
2023-02-14T23:50:15.813Z,13.53
2023-02-14T23:52:44.812Z,14.10
2023-02-14T23:55:12.528Z,12.67
2023-02-14T23:57:40.104Z,13.70
